createdAt,value
2018-05-13T00:00:19.598Z,2.80
2018-05-13T00:01:19.612Z,3.10
2018-05-13T00:02:19.629Z,2.90
2018-05-13T00:03:19.642Z,3.10
2018-05-13T00:04:19.657Z,3.50
2018-05-13T00:05:19.749Z,4.40
2018-05-13T00:06:19.689Z,2.90
2018-05-13T00:07:19.701Z,2.50
2018-05-13T00:08:19.711Z,2.80
2018-05-13T00:09:19.727Z,4.40
2018-05-13T00:10:19.741Z,3.50
2018-05-13T00:11:19.754Z,4.10
2018-05-13T00:12:19.770Z,2.70
2018-05-13T00:13:19.783Z,2.70
2018-05-13T00:14:19.799Z,2.70
2018-05-13T00:15:19.813Z,4.50
2018-05-13T00:16:19.829Z,3.50
2018-05-13T00:17:19.840Z,3.20
2018-05-13T00:18:19.854Z,4.10
2018-05-13T00:19:19.871Z,3.20
2018-05-13T00:20:19.885Z,3.50
2018-05-13T00:21:19.897Z,3.40
2018-05-13T00:22:19.912Z,4.20
2018-05-13T00:23:19.927Z,4.20
2018-05-13T00:24:19.941Z,3.10
2018-05-13T00:25:19.956Z,2.30
2018-05-13T00:26:19.975Z,3.20
2018-05-13T00:27:19.982Z,4.30
2018-05-13T00:28:19.997Z,3.10
2018-05-13T00:29:20.022Z,4.10
2018-05-13T00:30:20.026Z,2.40
2018-05-13T00:31:20.041Z,3.90
2018-05-13T00:32:20.054Z,2.70
2018-05-13T00:33:20.068Z,2.70
2018-05-13T00:34:20.091Z,3.90
2018-05-13T00:35:20.100Z,3.40
2018-05-13T00:36:20.111Z,2.60
2018-05-13T00:37:20.125Z,2.50
2018-05-13T00:38:20.136Z,2.50
2018-05-13T00:39:20.152Z,3.60
2018-05-13T00:40:20.168Z,3.20
2018-05-13T00:41:20.179Z,3.20
2018-05-13T00:42:20.198Z,3.00
2018-05-13T00:43:20.209Z,2.80
2018-05-13T00:44:20.223Z,2.80
2018-05-13T00:45:20.236Z,3.00
2018-05-13T00:46:20.249Z,2.50
2018-05-13T00:47:20.263Z,4.10
2018-05-13T00:48:20.277Z,3.20
2018-05-13T00:49:20.295Z,3.20
2018-05-13T00:50:20.305Z,2.60
2018-05-13T00:51:20.319Z,3.40
2018-05-13T00:52:20.334Z,3.70
2018-05-13T00:53:20.347Z,3.20
2018-05-13T00:54:20.360Z,4.00
2018-05-13T00:55:20.379Z,3.70
2018-05-13T00:56:20.391Z,3.70
2018-05-13T00:57:20.407Z,5.10
2018-05-13T00:58:20.416Z,3.50
2018-05-13T00:59:20.428Z,4.80
2018-05-13T01:00:20.445Z,3.80
2018-05-13T01:01:20.458Z,2.80
2018-05-13T01:02:20.472Z,3.60
2018-05-13T01:03:20.486Z,2.80
2018-05-13T01:04:20.503Z,2.90
2018-05-13T01:05:20.512Z,2.50
2018-05-13T01:06:20.526Z,3.10
2018-05-13T01:07:20.540Z,4.50
2018-05-13T01:08:20.557Z,3.70
2018-05-13T01:09:20.568Z,3.20
2018-05-13T01:10:20.586Z,4.90
2018-05-13T01:11:20.597Z,5.30
2018-05-13T01:12:20.608Z,5.70
2018-05-13T01:13:20.621Z,4.00
2018-05-13T01:14:20.639Z,3.10
2018-05-13T01:15:20.651Z,3.20
2018-05-13T01:16:20.663Z,4.50
2018-05-13T01:17:20.678Z,3.30
2018-05-13T01:18:20.690Z,4.10
2018-05-13T01:19:20.704Z,2.90
2018-05-13T01:20:20.718Z,4.00
2018-05-13T01:21:20.731Z,3.20
2018-05-13T01:22:20.746Z,3.60
2018-05-13T01:23:20.762Z,4.50
2018-05-13T01:24:20.772Z,3.80
2018-05-13T01:25:20.786Z,3.40
2018-05-13T01:26:20.798Z,3.60
2018-05-13T01:27:20.815Z,4.00
2018-05-13T01:28:20.827Z,3.20
2018-05-13T01:29:20.838Z,4.50
2018-05-13T01:30:20.852Z,3.50
2018-05-13T01:31:20.865Z,3.40
2018-05-13T01:32:20.884Z,4.00
2018-05-13T01:33:20.892Z,3.80
2018-05-13T01:34:20.907Z,3.40
2018-05-13T01:35:20.919Z,3.50
2018-05-13T01:36:20.933Z,3.60
2018-05-13T01:37:20.949Z,2.90
2018-05-13T01:38:20.962Z,3.20
2018-05-13T01:39:20.974Z,2.80
2018-05-13T01:40:20.987Z,3.10
2018-05-13T01:41:21.005Z,3.00
2018-05-13T01:42:21.014Z,2.80
2018-05-13T01:43:21.028Z,4.90
2018-05-13T01:44:21.042Z,3.80
2018-05-13T01:45:21.053Z,3.10
2018-05-13T01:46:21.067Z,4.40
2018-05-13T01:47:21.081Z,3.70
2018-05-13T01:48:21.094Z,3.20
2018-05-13T01:49:21.114Z,2.90
2018-05-13T01:50:21.121Z,3.60
2018-05-13T01:51:21.134Z,3.20
2018-05-13T01:52:21.149Z,3.60
2018-05-13T01:53:21.159Z,3.10
2018-05-13T01:54:21.174Z,3.30
2018-05-13T01:55:21.188Z,3.50
2018-05-13T01:56:21.200Z,3.80
2018-05-13T01:57:21.216Z,3.90
2018-05-13T01:58:21.226Z,2.70
2018-05-13T01:59:21.238Z,3.10
2018-05-13T02:00:21.253Z,3.00
2018-05-13T02:01:21.263Z,3.90
2018-05-13T02:02:21.277Z,3.30
2018-05-13T02:03:21.291Z,3.50
2018-05-13T02:04:21.304Z,5.00
2018-05-13T02:05:21.317Z,4.00
2018-05-13T02:06:21.330Z,3.80
2018-05-13T02:07:21.345Z,3.20
2018-05-13T02:08:21.357Z,3.90
2018-05-13T02:09:21.368Z,4.80
2018-05-13T02:10:21.380Z,4.50
2018-05-13T02:11:21.398Z,5.40
2018-05-13T02:12:21.474Z,4.00
2018-05-13T02:13:21.423Z,3.20
2018-05-13T02:14:21.434Z,3.10
2018-05-13T02:15:21.448Z,3.70
2018-05-13T02:16:21.461Z,4.20
2018-05-13T02:17:21.472Z,3.30
2018-05-13T02:18:21.486Z,3.80
2018-05-13T02:19:21.499Z,3.20
2018-05-13T02:20:21.512Z,11.10
2018-05-13T02:21:21.525Z,4.70
2018-05-13T02:22:21.539Z,3.00
2018-05-13T02:23:21.549Z,4.00
2018-05-13T02:24:21.564Z,3.70
2018-05-13T02:25:21.579Z,3.50
2018-05-13T02:26:21.591Z,4.00
2018-05-13T02:27:21.605Z,5.60
2018-05-13T02:28:21.618Z,4.00
2018-05-13T02:29:21.628Z,3.90
2018-05-13T02:30:21.644Z,4.00
2018-05-13T02:31:21.659Z,4.70
2018-05-13T02:32:21.668Z,4.70
2018-05-13T02:33:21.681Z,4.00
2018-05-13T02:34:21.697Z,6.50
2018-05-13T02:35:21.707Z,3.80
2018-05-13T02:36:21.721Z,3.80
2018-05-13T02:37:21.731Z,3.90
2018-05-13T02:38:21.746Z,3.80
2018-05-13T02:39:21.760Z,4.10
2018-05-13T02:40:21.773Z,4.10
2018-05-13T02:41:21.784Z,3.60
2018-05-13T02:42:21.797Z,4.20
2018-05-13T02:43:21.811Z,5.20
2018-05-13T02:44:21.830Z,10.30
2018-05-13T02:45:21.836Z,8.60
2018-05-13T02:46:21.850Z,5.70
2018-05-13T02:47:21.862Z,4.40
2018-05-13T02:48:21.875Z,4.70
2018-05-13T02:49:21.887Z,4.90
2018-05-13T02:50:21.900Z,4.00
2018-05-13T02:51:21.913Z,4.60
2018-05-13T02:52:21.928Z,4.30
2018-05-13T02:53:21.939Z,4.40
2018-05-13T02:54:21.953Z,4.00
2018-05-13T02:55:21.965Z,4.30
2018-05-13T02:56:21.978Z,3.90
2018-05-13T02:57:21.995Z,4.20
2018-05-13T02:58:22.003Z,3.60
2018-05-13T02:59:22.016Z,4.80
2018-05-13T03:00:22.033Z,3.80
2018-05-13T03:01:22.042Z,4.90
2018-05-13T03:02:22.056Z,3.60
2018-05-13T03:03:22.069Z,3.80
2018-05-13T03:04:22.082Z,3.90
2018-05-13T03:05:22.095Z,3.90
2018-05-13T03:06:22.106Z,4.30
2018-05-13T03:07:22.130Z,4.10
2018-05-13T03:08:22.133Z,4.00
2018-05-13T03:09:22.145Z,5.40
2018-05-13T03:10:22.157Z,4.70
2018-05-13T03:11:22.172Z,3.40
2018-05-13T03:12:22.185Z,4.80
2018-05-13T03:13:22.208Z,3.80
2018-05-13T03:14:22.210Z,4.10
2018-05-13T03:15:22.223Z,5.50
2018-05-13T03:16:22.237Z,4.90
2018-05-13T03:17:22.249Z,5.40
2018-05-13T03:18:22.260Z,4.30
2018-05-13T03:19:22.274Z,4.10
2018-05-13T03:20:22.287Z,3.90
2018-05-13T03:21:22.300Z,4.30
2018-05-13T03:22:22.311Z,4.80
2018-05-13T03:23:22.333Z,4.60
2018-05-13T03:24:22.339Z,4.50
2018-05-13T03:25:22.354Z,4.30
2018-05-13T03:26:22.363Z,4.50
2018-05-13T03:27:22.377Z,4.40
2018-05-13T03:28:22.389Z,4.30
2018-05-13T03:29:22.401Z,4.60
2018-05-13T03:30:22.417Z,4.50
2018-05-13T03:31:22.435Z,6.20
2018-05-13T03:32:22.441Z,4.90
2018-05-13T03:33:22.455Z,4.70
2018-05-13T03:34:22.471Z,4.90
2018-05-13T03:35:22.478Z,5.00
2018-05-13T03:36:22.491Z,5.30
2018-05-13T03:37:22.504Z,6.60
2018-05-13T03:38:22.517Z,5.80
2018-05-13T03:39:22.532Z,5.30
2018-05-13T03:40:22.541Z,5.10
2018-05-13T03:41:22.554Z,4.70
2018-05-13T03:42:22.568Z,6.80
2018-05-13T03:43:22.579Z,4.40
2018-05-13T03:44:22.594Z,4.90
2018-05-13T03:45:22.606Z,4.80
2018-05-13T03:46:22.619Z,4.60
2018-05-13T03:47:22.631Z,4.50
2018-05-13T03:48:22.643Z,3.90
2018-05-13T03:49:22.656Z,4.90
2018-05-13T03:50:22.668Z,4.30
2018-05-13T03:51:22.681Z,4.10
2018-05-13T03:52:22.695Z,4.30
2018-05-13T03:53:22.705Z,4.10
2018-05-13T03:54:22.719Z,4.70
2018-05-13T03:55:22.739Z,4.60
2018-05-13T03:56:22.744Z,3.90
2018-05-13T03:57:22.757Z,4.20
2018-05-13T03:58:22.775Z,4.30
2018-05-13T03:59:22.781Z,3.90
2018-05-13T04:00:22.796Z,5.40
2018-05-13T04:01:22.808Z,3.80
2018-05-13T04:02:22.821Z,3.40
2018-05-13T04:03:22.835Z,4.20
2018-05-13T04:04:22.847Z,3.60
2018-05-13T04:05:22.861Z,5.90
2018-05-13T04:06:22.878Z,5.10
2018-05-13T04:07:22.891Z,5.20
2018-05-13T04:08:22.895Z,4.80
2018-05-13T04:09:22.908Z,5.00
2018-05-13T04:10:22.921Z,6.30
2018-05-13T04:11:22.935Z,3.80
2018-05-13T04:12:22.948Z,4.20
2018-05-13T04:13:22.959Z,4.50
2018-05-13T04:14:22.973Z,4.50
2018-05-13T04:15:22.984Z,3.70
2018-05-13T04:16:22.998Z,3.50
2018-05-13T04:17:23.011Z,3.60
2018-05-13T04:18:23.021Z,3.90
2018-05-13T04:19:23.036Z,4.90
2018-05-13T04:20:23.047Z,3.40
2018-05-13T04:21:23.058Z,3.40
2018-05-13T04:22:23.072Z,3.60
2018-05-13T04:23:23.085Z,4.50
2018-05-13T04:24:23.099Z,3.80
2018-05-13T04:25:23.110Z,5.30
2018-05-13T04:26:23.121Z,4.30
2018-05-13T04:27:23.136Z,3.90
2018-05-13T04:28:23.148Z,4.00
2018-05-13T04:29:23.161Z,5.30
2018-05-13T04:30:23.173Z,4.20
2018-05-13T04:31:23.187Z,3.40
2018-05-13T04:32:23.198Z,4.60
2018-05-13T04:33:23.211Z,3.80
2018-05-13T04:34:23.223Z,4.00
2018-05-13T04:35:23.236Z,4.50
2018-05-13T04:36:23.249Z,3.30
2018-05-13T04:37:23.264Z,4.10
2018-05-13T04:38:23.278Z,4.40
2018-05-13T04:39:23.285Z,4.00
2018-05-13T04:40:23.299Z,4.90
2018-05-13T04:41:23.313Z,4.00
2018-05-13T04:42:23.322Z,3.70
2018-05-13T04:43:23.334Z,4.10
2018-05-13T04:44:23.349Z,3.90
2018-05-13T04:45:23.364Z,4.00
2018-05-13T04:46:23.373Z,3.40
2018-05-13T04:47:23.384Z,4.40
2018-05-13T04:48:23.397Z,3.80
2018-05-13T04:49:23.410Z,3.60
2018-05-13T04:50:23.422Z,3.80
2018-05-13T04:51:23.436Z,3.70
2018-05-13T04:52:23.448Z,4.50
2018-05-13T04:53:23.459Z,5.30
2018-05-13T04:54:23.475Z,4.00
2018-05-13T04:55:23.484Z,4.50
2018-05-13T04:56:23.498Z,4.10
2018-05-13T04:57:23.510Z,3.70
2018-05-13T04:58:23.520Z,4.00
2018-05-13T04:59:23.535Z,4.20
2018-05-13T05:00:23.548Z,4.50
2018-05-13T05:01:23.558Z,4.40
2018-05-13T05:02:23.571Z,4.20
2018-05-13T05:03:23.584Z,4.30
2018-05-13T05:04:23.596Z,5.30
2018-05-13T05:05:23.608Z,4.90
2018-05-13T05:06:23.624Z,4.20
2018-05-13T05:07:23.633Z,6.10
2018-05-13T05:08:23.648Z,4.30
2018-05-13T05:09:23.656Z,3.40
2018-05-13T05:10:23.672Z,3.70
2018-05-13T05:11:23.684Z,5.30
2018-05-13T05:12:23.696Z,5.20
2018-05-13T05:13:23.713Z,3.70
2018-05-13T05:14:23.725Z,3.80
2018-05-13T05:15:23.735Z,4.90
2018-05-13T05:16:23.751Z,3.80
2018-05-13T05:17:23.761Z,3.70
2018-05-13T05:18:23.772Z,4.60
2018-05-13T05:19:23.787Z,6.40
2018-05-13T05:20:23.797Z,3.50
2018-05-13T05:21:23.810Z,3.60
2018-05-13T05:22:23.825Z,4.10
2018-05-13T05:23:23.838Z,5.00
2018-05-13T05:24:23.850Z,3.80
2018-05-13T05:25:23.861Z,4.40
2018-05-13T05:26:23.877Z,5.50
2018-05-13T05:27:23.887Z,4.80
2018-05-13T05:28:23.902Z,3.80
2018-05-13T05:29:23.911Z,4.40
2018-05-13T05:30:23.926Z,4.50
2018-05-13T05:31:23.938Z,3.70
2018-05-13T05:32:23.953Z,3.80
2018-05-13T05:33:23.963Z,3.60
2018-05-13T05:34:23.979Z,5.00
2018-05-13T05:35:23.989Z,4.40
2018-05-13T05:36:24.003Z,3.90
2018-05-13T05:37:24.015Z,4.10
2018-05-13T05:38:24.026Z,6.10
2018-05-13T05:39:24.041Z,4.00
2018-05-13T05:40:24.053Z,4.70
2018-05-13T05:41:24.068Z,4.40
2018-05-13T05:42:24.081Z,5.10
2018-05-13T05:43:24.093Z,4.50
2018-05-13T05:44:24.105Z,4.90
2018-05-13T05:45:24.118Z,4.60
2018-05-13T05:46:24.132Z,4.30
2018-05-13T05:47:24.147Z,4.30
2018-05-13T05:48:24.257Z,5.30
2018-05-13T05:49:24.171Z,4.70
2018-05-13T05:50:24.185Z,6.10
2018-05-13T05:51:24.201Z,6.90
2018-05-13T05:52:24.209Z,5.60
2018-05-13T05:53:24.224Z,6.50
2018-05-13T05:54:24.236Z,5.50
2018-05-13T05:55:24.248Z,4.60
2018-05-13T05:56:24.261Z,5.70
2018-05-13T05:57:24.277Z,4.40
2018-05-13T05:58:24.287Z,4.80
2018-05-13T05:59:24.298Z,4.90
2018-05-13T06:00:24.313Z,4.60
2018-05-13T06:01:24.325Z,4.30
2018-05-13T06:02:24.339Z,6.80
2018-05-13T06:03:24.351Z,6.30
2018-05-13T06:04:24.364Z,5.30
2018-05-13T06:05:24.379Z,5.60
2018-05-13T06:06:24.390Z,6.40
2018-05-13T06:07:24.403Z,6.10
2018-05-13T06:08:24.416Z,5.20
2018-05-13T06:09:24.430Z,7.70
2018-05-13T06:10:24.441Z,5.50
2018-05-13T06:11:24.454Z,5.50
2018-05-13T06:12:24.470Z,6.20
2018-05-13T06:13:24.481Z,8.50
2018-05-13T06:14:24.494Z,5.70
2018-05-13T06:15:24.510Z,4.20
2018-05-13T06:16:24.521Z,4.60
2018-05-13T06:17:24.535Z,5.10
2018-05-13T06:18:24.545Z,4.80
2018-05-13T06:19:24.559Z,5.40
2018-05-13T06:20:24.574Z,17.30
2018-05-13T06:21:24.583Z,131.40
2018-05-13T06:22:24.595Z,705.70
2018-05-13T06:23:24.609Z,762.60
2018-05-13T06:24:24.622Z,320.50
2018-05-13T06:25:24.643Z,58.00
2018-05-13T06:26:24.647Z,10.00
2018-05-13T06:27:24.659Z,21.00
2018-05-13T06:28:24.674Z,6.60
2018-05-13T06:29:24.684Z,7.00
2018-05-13T06:30:24.698Z,9.50
2018-05-13T06:31:24.711Z,9.90
2018-05-13T06:32:24.724Z,73.60
2018-05-13T06:33:24.736Z,87.50
2018-05-13T06:34:24.758Z,186.80
2018-05-13T06:35:24.761Z,7.30
2018-05-13T06:36:24.775Z,51.70
2018-05-13T06:37:24.785Z,283.70
2018-05-13T06:38:24.799Z,22.50
2018-05-13T06:39:24.813Z,386.90
2018-05-13T06:40:24.826Z,105.40
2018-05-13T06:41:24.837Z,31.90
2018-05-13T06:42:24.850Z,113.70
2018-05-13T06:43:24.867Z,38.00
2018-05-13T06:44:24.874Z,10.00
2018-05-13T06:45:24.887Z,9.60
2018-05-13T06:46:24.903Z,97.00
2018-05-13T06:47:24.918Z,290.80
2018-05-13T06:48:24.926Z,366.50
2018-05-13T06:49:24.940Z,23.70
2018-05-13T06:50:24.953Z,40.30
2018-05-13T06:51:25.051Z,72.50
2018-05-13T06:52:24.979Z,93.80
2018-05-13T06:53:24.992Z,15.90
2018-05-13T06:54:25.003Z,9.00
2018-05-13T06:55:25.016Z,8.90
2018-05-13T06:56:25.028Z,294.00
2018-05-13T06:57:25.145Z,119.40
2018-05-13T06:58:25.056Z,14.20
2018-05-13T06:59:25.067Z,140.60
2018-05-13T07:00:25.082Z,9.40
2018-05-13T07:01:25.094Z,123.90
2018-05-13T07:02:25.105Z,14.30
2018-05-13T07:03:25.119Z,7.60
2018-05-13T07:04:25.132Z,7.60
2018-05-13T07:05:25.142Z,7.50
2018-05-13T07:06:25.155Z,7.00
2018-05-13T07:07:25.169Z,9.50
2018-05-13T07:08:25.182Z,19.50
2018-05-13T07:09:25.196Z,11.20
2018-05-13T07:10:25.352Z,9.20
2018-05-13T07:11:25.219Z,9.30
2018-05-13T07:12:25.237Z,159.20
2018-05-13T07:13:25.253Z,1877.70
2018-05-13T07:14:25.262Z,828.90
2018-05-13T07:15:25.276Z,808.80
2018-05-13T07:16:25.351Z,238.50
2018-05-13T07:17:25.300Z,288.70
2018-05-13T07:18:25.312Z,711.30
2018-05-13T07:19:25.373Z,805.80
2018-05-13T07:20:25.342Z,469.30
2018-05-13T07:21:25.352Z,283.00
2018-05-13T07:22:25.365Z,143.80
2018-05-13T07:23:25.393Z,126.00
2018-05-13T07:24:25.390Z,229.70
2018-05-13T07:25:25.402Z,902.80
2018-05-13T07:26:25.418Z,653.30
2018-05-13T07:27:25.430Z,385.50
2018-05-13T07:28:25.446Z,846.90
2018-05-13T07:29:25.454Z,175.50
2018-05-13T07:30:25.468Z,147.40
2018-05-13T07:31:25.479Z,964.00
2018-05-13T07:32:25.495Z,1428.20
2018-05-13T07:33:25.505Z,682.70
2018-05-13T07:34:25.520Z,620.80
2018-05-13T07:35:25.531Z,222.80
2018-05-13T07:36:25.546Z,455.60
2018-05-13T07:37:25.557Z,355.80
2018-05-13T07:38:25.573Z,1062.10
2018-05-13T07:39:25.648Z,721.10
2018-05-13T07:40:25.596Z,1322.70
2018-05-13T07:41:25.607Z,758.50
2018-05-13T07:42:25.623Z,150.00
2018-05-13T07:43:25.715Z,60.00
2018-05-13T07:44:25.653Z,492.80
2018-05-13T07:45:25.659Z,846.50
2018-05-13T07:46:25.670Z,206.40
2018-05-13T07:47:25.684Z,16.10
2018-05-13T07:48:25.697Z,9.40
2018-05-13T07:49:25.710Z,8.80
2018-05-13T07:50:25.723Z,9.20
2018-05-13T07:51:25.736Z,8.30
2018-05-13T07:52:25.749Z,8.80
2018-05-13T07:53:25.761Z,7.80
2018-05-13T07:54:25.772Z,34.10
2018-05-13T07:55:25.790Z,9.10
2018-05-13T07:56:25.802Z,9.40
2018-05-13T07:57:25.810Z,9.10
2018-05-13T07:58:25.824Z,8.80
2018-05-13T07:59:25.837Z,8.80
2018-05-13T08:00:25.852Z,10.10
2018-05-13T08:01:25.863Z,7.70
2018-05-13T08:02:25.877Z,7.60
2018-05-13T08:03:25.890Z,7.50
2018-05-13T08:04:25.908Z,7.10
2018-05-13T08:05:25.912Z,8.40
2018-05-13T08:06:25.928Z,7.20
2018-05-13T08:07:25.940Z,7.30
2018-05-13T08:08:25.955Z,7.40
2018-05-13T08:09:25.969Z,7.20
2018-05-13T08:10:25.979Z,8.00
2018-05-13T08:11:25.992Z,7.60
2018-05-13T08:12:26.008Z,7.30
2018-05-13T08:13:26.018Z,8.10
2018-05-13T08:14:26.031Z,8.10
2018-05-13T08:15:26.045Z,8.50
2018-05-13T08:16:26.057Z,8.70
2018-05-13T08:17:26.070Z,24.00
2018-05-13T08:18:26.083Z,18.70
2018-05-13T08:19:26.098Z,9.90
2018-05-13T08:20:26.288Z,9.30
2018-05-13T08:21:26.123Z,8.30
2018-05-13T08:22:26.136Z,8.90
2018-05-13T08:23:26.147Z,8.60
2018-05-13T08:24:26.161Z,7.50
2018-05-13T08:25:26.172Z,9.20
2018-05-13T08:26:26.186Z,8.00
2018-05-13T08:27:26.202Z,7.60
2018-05-13T08:28:26.213Z,8.90
2018-05-13T08:29:26.226Z,7.90
2018-05-13T08:30:26.239Z,8.60
2018-05-13T08:31:26.251Z,7.70
2018-05-13T08:32:26.266Z,7.30
2018-05-13T08:33:26.279Z,8.00
2018-05-13T08:34:26.292Z,8.20
2018-05-13T08:35:26.303Z,7.10
2018-05-13T08:36:26.322Z,7.60
2018-05-13T08:37:26.332Z,7.60
2018-05-13T08:38:26.346Z,7.30
2018-05-13T08:39:26.357Z,6.80
2018-05-13T08:40:26.372Z,6.80
2018-05-13T08:41:26.385Z,6.70
2018-05-13T08:42:26.398Z,8.40
2018-05-13T08:43:26.414Z,6.80
2018-05-13T08:44:26.425Z,5.90
2018-05-13T08:45:26.437Z,7.30
2018-05-13T08:46:26.452Z,6.90
2018-05-13T08:47:26.466Z,6.30
2018-05-13T08:48:26.495Z,7.50
2018-05-13T08:49:26.491Z,8.60
2018-05-13T08:50:26.504Z,7.50
2018-05-13T08:51:26.518Z,19.70
2018-05-13T08:52:26.531Z,38.70
2018-05-13T08:53:26.544Z,8.40
2018-05-13T08:54:26.558Z,7.70
2018-05-13T08:55:26.571Z,7.50
2018-05-13T08:56:26.583Z,7.90
2018-05-13T08:57:26.597Z,6.50
2018-05-13T08:58:26.610Z,6.40
2018-05-13T08:59:26.624Z,6.30
2018-05-13T09:00:26.639Z,6.90
2018-05-13T09:01:26.650Z,6.70
2018-05-13T09:02:26.664Z,5.60
2018-05-13T09:03:26.680Z,7.00
2018-05-13T09:04:26.692Z,6.40
2018-05-13T09:05:26.706Z,5.40
2018-05-13T09:06:26.720Z,5.50
2018-05-13T09:07:26.736Z,6.70
2018-05-13T09:08:26.851Z,6.50
2018-05-13T09:09:26.760Z,5.90
2018-05-13T09:10:26.777Z,5.30
2018-05-13T09:11:26.788Z,7.60
2018-05-13T09:12:26.803Z,7.60
2018-05-13T09:13:26.815Z,6.10
2018-05-13T09:14:26.853Z,7.20
2018-05-13T09:15:26.845Z,5.90
2018-05-13T09:16:26.859Z,5.40
2018-05-13T09:17:26.872Z,5.40
2018-05-13T09:18:26.886Z,7.80
2018-05-13T09:19:26.900Z,4.90
2018-05-13T09:20:26.915Z,6.00
2018-05-13T09:21:26.930Z,6.10
2018-05-13T09:22:26.940Z,6.70
2018-05-13T09:23:26.959Z,6.20
2018-05-13T09:24:26.969Z,10.20
2018-05-13T09:25:26.982Z,5.40
2018-05-13T09:26:27.018Z,5.80
2018-05-13T09:27:27.009Z,6.90
2018-05-13T09:28:27.024Z,5.30
2018-05-13T09:29:27.040Z,5.80
2018-05-13T09:30:27.051Z,5.20
2018-05-13T09:31:27.068Z,5.50
2018-05-13T09:32:27.078Z,5.50
2018-05-13T09:33:27.094Z,5.40
2018-05-13T09:34:27.108Z,5.30
2018-05-13T09:35:27.122Z,5.60
2018-05-13T09:36:27.141Z,6.50
2018-05-13T09:37:27.148Z,4.70
2018-05-13T09:38:27.162Z,6.70
2018-05-13T09:39:27.242Z,5.70
2018-05-13T09:40:27.193Z,5.40
2018-05-13T09:41:27.209Z,4.80
2018-05-13T09:42:27.221Z,5.60
2018-05-13T09:43:27.236Z,5.10
2018-05-13T09:44:27.250Z,5.00
2018-05-13T09:45:27.265Z,5.70
2018-05-13T09:46:27.281Z,6.20
2018-05-13T09:47:27.292Z,5.20
2018-05-13T09:48:27.307Z,4.90
2018-05-13T09:49:27.326Z,4.90
2018-05-13T09:50:27.339Z,9.60
2018-05-13T09:51:27.350Z,5.80
2018-05-13T09:52:27.366Z,13.00
2018-05-13T09:53:27.383Z,6.50
2018-05-13T09:54:27.393Z,6.50
2018-05-13T09:55:27.407Z,5.00
2018-05-13T09:56:27.427Z,5.10
2018-05-13T09:57:27.437Z,4.80
2018-05-13T09:58:27.466Z,4.70
2018-05-13T09:59:27.465Z,4.70
2018-05-13T10:00:27.481Z,4.90
2018-05-13T10:01:27.493Z,5.40
2018-05-13T10:02:27.509Z,4.90
2018-05-13T10:03:27.522Z,4.40
2018-05-13T10:04:27.538Z,4.80
2018-05-13T10:05:27.550Z,5.10
2018-05-13T10:06:27.566Z,4.60
2018-05-13T10:07:27.584Z,4.70
2018-05-13T10:08:28.601Z,6.30
2018-05-13T10:09:27.610Z,4.40
2018-05-13T10:10:27.623Z,4.30
2018-05-13T10:11:27.647Z,5.50
2018-05-13T10:12:27.656Z,5.00
2018-05-13T10:13:27.667Z,4.30
2018-05-13T10:14:27.680Z,4.30
2018-05-13T10:15:27.695Z,4.40
2018-05-13T10:16:27.711Z,4.70
2018-05-13T10:17:27.723Z,4.60
2018-05-13T10:18:27.737Z,4.30
2018-05-13T10:19:27.844Z,4.50
2018-05-13T10:20:27.767Z,4.40
2018-05-13T10:21:27.782Z,3.90
2018-05-13T10:22:27.797Z,5.20
2018-05-13T10:23:27.810Z,3.80
2018-05-13T10:24:27.834Z,3.70
2018-05-13T10:25:27.839Z,4.60
2018-05-13T10:26:27.854Z,4.00
2018-05-13T10:27:27.871Z,4.60
2018-05-13T10:28:27.891Z,3.40
2018-05-13T10:29:27.898Z,3.90
2018-05-13T10:30:27.914Z,4.10
2018-05-13T10:31:27.931Z,3.80
2018-05-13T10:32:27.947Z,4.50
2018-05-13T10:33:27.960Z,4.10
2018-05-13T10:34:27.973Z,4.40
2018-05-13T10:35:27.992Z,4.10
2018-05-13T10:36:28.083Z,3.80
2018-05-13T10:37:28.016Z,3.90
2018-05-13T10:38:28.032Z,4.60
2018-05-13T10:39:28.045Z,3.50
2018-05-13T10:40:28.068Z,4.60
2018-05-13T10:41:28.075Z,4.80
2018-05-13T10:42:28.099Z,4.10
2018-05-13T10:43:28.108Z,5.90
2018-05-13T10:44:28.121Z,4.90
2018-05-13T10:45:28.181Z,3.60
2018-05-13T10:46:28.147Z,4.30
2018-05-13T10:47:28.167Z,5.50
2018-05-13T10:48:28.178Z,3.50
2018-05-13T10:49:28.194Z,3.40
2018-05-13T10:50:28.208Z,4.30
2018-05-13T10:51:28.222Z,4.40
2018-05-13T10:52:28.235Z,5.10
2018-05-13T10:53:28.250Z,6.90
2018-05-13T10:54:28.266Z,5.50
2018-05-13T10:55:28.283Z,3.80
2018-05-13T10:56:28.296Z,4.50
2018-05-13T10:57:28.309Z,4.40
2018-05-13T10:58:28.322Z,3.70
2018-05-13T10:59:28.337Z,3.90
2018-05-13T11:00:28.353Z,4.30
2018-05-13T11:01:28.376Z,4.40
2018-05-13T11:02:28.382Z,3.50
2018-05-13T11:03:28.398Z,3.80
2018-05-13T11:04:28.420Z,4.20
2018-05-13T11:05:28.430Z,4.10
2018-05-13T11:06:28.447Z,3.90
2018-05-13T11:07:28.462Z,3.30
2018-05-13T11:08:28.471Z,4.30
2018-05-13T11:09:28.486Z,3.60
2018-05-13T11:10:28.501Z,4.10
2018-05-13T11:11:28.518Z,3.90
2018-05-13T11:12:28.533Z,3.30
2018-05-13T11:13:28.543Z,3.40
2018-05-13T11:14:28.563Z,4.20
2018-05-13T11:15:28.573Z,4.20
2018-05-13T11:16:28.590Z,4.50
2018-05-13T11:17:28.603Z,3.40
2018-05-13T11:18:28.618Z,3.40
2018-05-13T11:19:28.635Z,3.70
2018-05-13T11:20:28.649Z,5.20
2018-05-13T11:21:28.717Z,4.20
2018-05-13T11:22:28.678Z,4.00
2018-05-13T11:23:28.691Z,5.30
2018-05-13T11:24:28.707Z,3.20
2018-05-13T11:25:28.721Z,4.20
2018-05-13T11:26:28.735Z,4.60
2018-05-13T11:27:28.751Z,3.50
2018-05-13T11:28:28.766Z,3.00
2018-05-13T11:29:28.783Z,3.60
2018-05-13T11:30:28.797Z,3.30
2018-05-13T11:31:28.812Z,4.00
2018-05-13T11:32:28.828Z,3.50
2018-05-13T11:33:28.840Z,3.40
2018-05-13T11:34:28.856Z,3.40
2018-05-13T11:35:28.871Z,3.40
2018-05-13T11:36:28.886Z,3.90
2018-05-13T11:37:28.901Z,5.50
2018-05-13T11:38:28.917Z,4.30
2018-05-13T11:39:28.946Z,4.20
2018-05-13T11:40:28.949Z,3.60
2018-05-13T11:41:28.962Z,4.90
2018-05-13T11:42:28.979Z,4.50
2018-05-13T11:43:28.994Z,2.10
2018-05-13T11:44:29.014Z,2.30
2018-05-13T11:45:29.027Z,2.20
2018-05-13T11:46:29.041Z,3.00
2018-05-13T11:47:29.058Z,2.00
2018-05-13T11:48:29.076Z,1.80
2018-05-13T11:49:29.086Z,3.00
2018-05-13T11:50:29.102Z,2.50
2018-05-13T11:51:29.118Z,2.20
2018-05-13T11:52:29.136Z,2.00
2018-05-13T11:53:29.148Z,2.10
2018-05-13T11:54:29.166Z,3.30
2018-05-13T11:55:29.180Z,1.90
2018-05-13T11:56:29.223Z,3.40
2018-05-13T11:57:29.211Z,3.30
2018-05-13T11:58:29.226Z,2.40
2018-05-13T11:59:29.242Z,3.40
2018-05-13T12:00:29.257Z,3.60
2018-05-13T12:01:29.274Z,3.80
2018-05-13T12:02:29.314Z,2.90
2018-05-13T12:03:29.303Z,3.20
2018-05-13T12:04:29.320Z,2.50
2018-05-13T12:05:29.334Z,3.00
2018-05-13T12:06:29.347Z,2.90
2018-05-13T12:07:29.364Z,3.20
2018-05-13T12:08:29.377Z,3.80
2018-05-13T12:09:29.395Z,2.00
2018-05-13T12:10:29.407Z,4.10
2018-05-13T12:11:29.426Z,4.80
2018-05-13T12:12:29.456Z,3.30
2018-05-13T12:13:29.456Z,3.90
2018-05-13T12:14:29.469Z,1.90
2018-05-13T12:15:29.486Z,2.90
2018-05-13T12:16:29.504Z,2.70
2018-05-13T12:17:29.516Z,2.20
2018-05-13T12:18:29.534Z,2.10
2018-05-13T12:19:29.547Z,6.30
2018-05-13T12:20:29.560Z,2.30
2018-05-13T12:21:29.575Z,2.10
2018-05-13T12:22:29.592Z,3.40
2018-05-13T12:23:29.607Z,2.00
2018-05-13T12:24:29.623Z,3.60
2018-05-13T12:25:29.639Z,1.90
2018-05-13T12:26:29.653Z,2.60
2018-05-13T12:27:29.668Z,2.40
2018-05-13T12:28:29.683Z,1.90
2018-05-13T12:29:29.698Z,3.80
2018-05-13T12:30:29.714Z,2.10
2018-05-13T12:31:29.727Z,4.00
2018-05-13T12:32:29.743Z,2.40
2018-05-13T12:33:29.800Z,2.20
2018-05-13T12:34:29.774Z,3.30
2018-05-13T12:35:29.790Z,1.70
2018-05-13T12:36:29.806Z,2.20
2018-05-13T12:37:29.819Z,3.00
2018-05-13T12:38:29.833Z,2.70
2018-05-13T12:39:29.857Z,2.00
2018-05-13T12:40:29.866Z,3.60
2018-05-13T12:41:29.881Z,3.10
2018-05-13T12:42:29.894Z,2.00
2018-05-13T12:43:29.917Z,2.80
2018-05-13T12:44:29.927Z,2.20
2018-05-13T12:45:29.939Z,2.40
2018-05-13T12:46:29.955Z,1.60
2018-05-13T12:47:29.973Z,1.90
2018-05-13T12:48:29.987Z,1.70
2018-05-13T12:49:30.000Z,3.00
2018-05-13T12:50:30.016Z,3.40
2018-05-13T12:51:30.030Z,2.70
2018-05-13T12:52:30.048Z,2.70
2018-05-13T12:53:30.060Z,2.50
2018-05-13T12:54:30.079Z,2.80
2018-05-13T12:55:30.092Z,1.80
2018-05-13T12:56:30.112Z,2.60
2018-05-13T12:57:30.120Z,1.60
2018-05-13T12:58:30.173Z,1.80
2018-05-13T12:59:30.156Z,2.30
2018-05-13T13:00:30.168Z,2.60
2018-05-13T13:01:30.183Z,3.30
2018-05-13T13:02:30.222Z,2.30
2018-05-13T13:03:30.212Z,1.80
2018-05-13T13:04:30.230Z,2.40
2018-05-13T13:05:30.242Z,4.10
2018-05-13T13:06:30.265Z,1.90
2018-05-13T13:07:30.283Z,2.00
2018-05-13T13:08:30.295Z,2.00
2018-05-13T13:09:30.384Z,1.90
2018-05-13T13:10:30.324Z,2.00
2018-05-13T13:11:30.335Z,1.90
2018-05-13T13:12:30.350Z,3.00
2018-05-13T13:13:30.362Z,2.50